Aérodrome :
LOGIN :

S'inscrire | Disclaimer

   EN    FR    IT 

 










Légende :    VFR   VFR Marginal   IFR   IFR Intensif   IFR Très Intensif
Visi : 
Plafond : 
>= 8 km
>= 3000ft
5 à 8 km
1000 à 3000 ft
1500m à 5 km
500 à 1000 ft
800 à 1500m
200 à 500 ft
< 800m
< 200 ft
Symboles :   Orages  Brouillard  Fortes neiges  Fortes précipitations  Vent > 20 kt
SIGMETs :   Divers  Orages  Givrage  Turbulence  Onde Orograph.  Cendres Volcan.







- Altitude de l'aérodrome : 23 ft
- Code IATA : XFW


EDHI - Hamburg Finkenwerder

DERNIER METAR :
  • 161520Z 25012KT 9999 FEW016 SCT024 BKN036 03/02 Q0987

METARs EXPIRÉS :
  • 161450Z 26013KT 9999 VCSH FEW013 SCT049 03/02 Q0987
  • 161420Z 26012KT 9999 VCSH FEW014 SCT018 BKN062 03/02 Q0987 RESHRA
  • 161320Z 23012KT 9999 SCT016 BKN026 05/02 Q0986
  • 161250Z 23010KT 9999 SCT015 BKN020 OVC023 05/03 Q0986

TAF TAF EDHI
Valide du 16 à 15h jusqu'au 16 à 21h UTC


161400Z 1615/1621 24010KT 9999 BKN025
TEMPO 1615/1617 24015G25KT SHRA BKN007CB
PROB30
TEMPO 1615/1617 3000 TSRAGS
TEMPO 1617/1621 2500 SHRASN BKN007CB
Pas de NOTAMs connus pour ce terrain.



MET'MAP, la Météo Aéronautique d'un coup d'oeil ! - Copyright ORBIFLY Décembre 2007 - Disclaimer

ORBIFLY MET'MAP TEAM :

Programmation & Développement : Alexandra Zaïnal
Conception & Développement : Baudouin d'Aumeries
Co-Programmation & Développement : Marc-Olivier Méhu
Soutien technique & logistique : Manuel Goepfert

Contact : metmap@orbifly.com




SOURCES & CREDITS :

   NOAA